sensor_id;sensor_type;location;lat;lon;timestamp;pressure;altitude;pressure_sealevel;temperature;humidity
50356;BME280;36264;51.296;-0.602;2023-04-05T00:00:36;102201.38;;;12.47;42.58
50356;BME280;36264;51.296;-0.602;2023-04-05T00:03:01;102194.44;;;12.44;42.49
50356;BME280;36264;51.296;-0.602;2023-04-05T00:05:27;102194.41;;;12.46;42.60
50356;BME280;36264;51.296;-0.602;2023-04-05T00:07:59;102195.28;;;12.46;42.70
50356;BME280;36264;51.296;-0.602;2023-04-05T00:10:25;102196.03;;;12.55;42.62
50356;BME280;36264;51.296;-0.602;2023-04-05T00:12:51;102197.03;;;12.44;42.39
50356;BME280;36264;51.296;-0.602;2023-04-05T00:15:16;102200.59;;;12.40;42.69
50356;BME280;36264;51.296;-0.602;2023-04-05T00:17:43;102196.09;;;12.52;42.53
50356;BME280;36264;51.296;-0.602;2023-04-05T00:20:09;102206.66;;;12.41;42.70
50356;BME280;36264;51.296;-0.602;2023-04-05T00:22:35;102197.88;;;12.46;42.87
50356;BME280;36264;51.296;-0.602;2023-04-05T00:25:05;102204.13;;;12.36;42.69
50356;BME280;36264;51.296;-0.602;2023-04-05T00:27:30;102196.31;;;12.36;43.17
50356;BME280;36264;51.296;-0.602;2023-04-05T00:29:55;102200.59;;;12.40;43.01
50356;BME280;36264;51.296;-0.602;2023-04-05T00:32:21;102196.22;;;12.42;42.82
50356;BME280;36264;51.296;-0.602;2023-04-05T00:34:47;102196.22;;;12.42;42.92
50356;BME280;36264;51.296;-0.602;2023-04-05T00:37:12;102188.50;;;12.35;42.73
50356;BME280;36264;51.296;-0.602;2023-04-05T00:39:40;102189.06;;;12.55;42.46
50356;BME280;36264;51.296;-0.602;2023-04-05T00:42:06;102196.16;;;12.47;42.37
50356;BME280;36264;51.296;-0.602;2023-04-05T00:44:33;102193.63;;;12.42;42.45
50356;BME280;36264;51.296;-0.602;2023-04-05T00:47:03;102196.00;;;12.58;42.58
50356;BME280;36264;51.296;-0.602;2023-04-05T00:49:29;102191.94;;;12.37;42.53
50356;BME280;36264;51.296;-0.602;2023-04-05T00:51:56;102184.09;;;12.38;42.81
50356;BME280;36264;51.296;-0.602;2023-04-05T00:54:23;102178.84;;;12.41;42.66
50356;BME280;36264;51.296;-0.602;2023-04-05T00:56:50;102182.53;;;12.28;42.85
50356;BME280;36264;51.296;-0.602;2023-04-05T00:59:17;102176.41;;;12.30;42.67
50356;BME280;36264;51.296;-0.602;2023-04-05T01:01:43;102164.94;;;11.82;43.77
50356;BME280;36264;51.296;-0.602;2023-04-05T01:04:24;102163.81;;;12.03;43.48
50356;BME280;36264;51.296;-0.602;2023-04-05T01:07:00;102163.78;;;12.04;43.88
50356;BME280;36264;51.296;-0.602;2023-04-05T01:09:52;102155.06;;;12.07;44.39
50356;BME280;36264;51.296;-0.602;2023-04-05T01:12:22;102149.97;;;11.99;44.00
50356;BME280;36264;51.296;-0.602;2023-04-05T01:14:52;102147.28;;;12.04;44.07
50356;BME280;36264;51.296;-0.602;2023-04-05T01:17:21;102143.09;;;11.95;43.96
50356;BME280;36264;51.296;-0.602;2023-04-05T01:19:50;102143.88;;;12.00;43.68
50356;BME280;36264;51.296;-0.602;2023-04-05T01:30:38;102125.31;;;12.22;44.51
50356;BME280;36264;51.296;-0.602;2023-04-05T01:33:18;102122.84;;;12.14;44.56
50356;BME280;36264;51.296;-0.602;2023-04-05T01:36:05;102126.25;;;12.18;44.69
50356;BME280;36264;51.296;-0.602;2023-04-05T01:38:34;102117.56;;;12.19;44.10
50356;BME280;36264;51.296;-0.602;2023-04-05T01:41:03;102119.44;;;12.10;44.24
50356;BME280;36264;51.296;-0.602;2023-04-05T01:43:28;102104.69;;;12.08;44.38
50356;BME280;36264;51.296;-0.602;2023-04-05T01:45:54;102109.88;;;12.11;44.39
50356;BME280;36264;51.296;-0.602;2023-04-05T01:48:19;102103.75;;;12.13;44.31
50356;BME280;36264;51.296;-0.602;2023-04-05T01:50:45;102097.66;;;12.14;44.42
50356;BME280;36264;51.296;-0.602;2023-04-05T01:53:10;102089.84;;;12.14;44.52
50356;BME280;36264;51.296;-0.602;2023-04-05T01:55:36;102091.59;;;12.12;44.63
50356;BME280;36264;51.296;-0.602;2023-04-05T01:58:01;102095.06;;;12.13;44.52
50356;BME280;36264;51.296;-0.602;2023-04-05T02:00:26;102089.84;;;12.14;44.59
50356;BME280;36264;51.296;-0.602;2023-04-05T02:02:52;102092.41;;;12.16;44.80
50356;BME280;36264;51.296;-0.602;2023-04-05T02:05:17;102088.91;;;12.19;44.81
50356;BME280;36264;51.296;-0.602;2023-04-05T02:07:43;102080.00;;;12.32;44.77
50356;BME280;36264;51.296;-0.602;2023-04-05T02:10:08;102083.44;;;12.36;44.73
50356;BME280;36264;51.296;-0.602;2023-04-05T02:12:34;102083.28;;;12.42;44.47
50356;BME280;36264;51.296;-0.602;2023-04-05T02:14:59;102079.00;;;12.41;44.48
50356;BME280;36264;51.296;-0.602;2023-04-05T02:17:25;102074.56;;;12.44;44.78
50356;BME280;36264;51.296;-0.602;2023-04-05T02:19:58;102074.69;;;12.38;44.51
50356;BME280;36264;51.296;-0.602;2023-04-05T02:22:26;102073.81;;;12.38;44.87
50356;BME280;36264;51.296;-0.602;2023-04-05T02:24:52;102072.13;;;12.35;44.86
50356;BME280;36264;51.296;-0.602;2023-04-05T02:27:17;102070.44;;;12.34;44.92
50356;BME280;36264;51.296;-0.602;2023-04-05T02:29:42;102068.63;;;12.38;45.02
50356;BME280;36264;51.296;-0.602;2023-04-05T02:32:09;102069.44;;;12.40;44.82
50356;BME280;36264;51.296;-0.602;2023-04-05T02:34:34;102065.13;;;12.39;44.83
50356;BME280;36264;51.296;-0.602;2023-04-05T02:37:01;102072.09;;;12.37;45.25
50356;BME280;36264;51.296;-0.602;2023-04-05T02:39:27;102064.09;;;12.47;44.86
50356;BME280;36264;51.296;-0.602;2023-04-05T02:41:53;102056.53;;;12.32;45.05
50356;BME280;36264;51.296;-0.602;2023-04-05T02:44:19;102055.72;;;12.30;45.03
50356;BME280;36264;51.296;-0.602;2023-04-05T02:46:44;102058.44;;;12.22;45.08
50356;BME280;36264;51.296;-0.602;2023-04-05T02:49:09;102055.97;;;12.14;45.10
50356;BME280;36264;51.296;-0.602;2023-04-05T02:51:35;102049.03;;;12.15;45.24
50356;BME280;36264;51.296;-0.602;2023-04-05T02:54:01;102054.00;;;12.27;45.16
50356;BME280;36264;51.296;-0.602;2023-04-05T02:56:27;102045.63;;;12.10;44.90
50356;BME280;36264;51.296;-0.602;2023-04-05T02:58:53;102050.03;;;12.06;44.80
50356;BME280;36264;51.296;-0.602;2023-04-05T03:01:18;102048.28;;;12.07;45.13
50356;BME280;36264;51.296;-0.602;2023-04-05T03:03:44;102045.69;;;12.05;45.08
50356;BME280;36264;51.296;-0.602;2023-04-05T03:06:09;102048.31;;;12.05;45.08
50356;BME280;36264;51.296;-0.602;2023-04-05T03:08:39;102052.47;;;12.17;45.07
50356;BME280;36264;51.296;-0.602;2023-04-05T03:11:11;102049.78;;;12.22;45.11
50356;BME280;36264;51.296;-0.602;2023-04-05T03:13:37;102048.44;;;11.99;45.01
50356;BME280;36264;51.296;-0.602;2023-04-05T03:16:03;102047.53;;;12.00;45.03
50356;BME280;36264;51.296;-0.602;2023-04-05T03:18:28;102046.75;;;11.95;45.19
50356;BME280;36264;51.296;-0.602;2023-04-05T03:20:54;102041.47;;;12.00;45.18
50356;BME280;36264;51.296;-0.602;2023-04-05T03:23:27;102037.75;;;12.14;45.12
50356;BME280;36264;51.296;-0.602;2023-04-05T03:28:22;102027.59;;;11.99;45.37
50356;BME280;36264;51.296;-0.602;2023-04-05T03:30:48;102028.44;;;12.01;45.25
50356;BME280;36264;51.296;-0.602;2023-04-05T03:33:13;102026.72;;;11.99;45.38
50356;BME280;36264;51.296;-0.602;2023-04-05T03:35:38;102024.19;;;11.94;45.57
50356;BME280;36264;51.296;-0.602;2023-04-05T03:38:03;102025.03;;;11.96;45.36
50356;BME280;36264;51.296;-0.602;2023-04-05T03:40:29;102021.59;;;11.92;45.48
50356;BME280;36264;51.296;-0.602;2023-04-05T03:42:55;102020.66;;;11.98;45.59
50356;BME280;36264;51.296;-0.602;2023-04-05T03:45:20;102018.84;;;12.02;45.51
50356;BME280;36264;51.296;-0.602;2023-04-05T03:47:46;102023.97;;;12.08;45.46
50356;BME280;36264;51.296;-0.602;2023-04-05T03:50:11;102019.59;;;12.08;45.64
50356;BME280;36264;51.296;-0.602;2023-04-05T03:52:36;102016.22;;;12.05;45.74
50356;BME280;36264;51.296;-0.602;2023-04-05T03:55:02;102012.72;;;12.06;45.63
50356;BME280;36264;51.296;-0.602;2023-04-05T03:57:28;102008.94;;;12.24;45.37
50356;BME280;36264;51.296;-0.602;2023-04-05T03:59:54;102007.44;;;12.10;45.71
50356;BME280;36264;51.296;-0.602;2023-04-05T04:02:20;102003.97;;;12.10;45.42
50356;BME280;36264;51.296;-0.602;2023-04-05T04:04:45;102005.75;;;12.06;45.61
50356;BME280;36264;51.296;-0.602;2023-04-05T04:07:11;102006.56;;;12.10;45.60
50356;BME280;36264;51.296;-0.602;2023-04-05T04:09:36;102007.56;;;12.03;45.73
50356;BME280;36264;51.296;-0.602;2023-04-05T04:12:02;102009.97;;;12.15;45.54
50356;BME280;36264;51.296;-0.602;2023-04-05T04:14:28;102011.66;;;12.18;45.41
50356;BME280;36264;51.296;-0.602;2023-04-05T04:16:53;102009.19;;;12.08;45.73
50356;BME280;36264;51.296;-0.602;2023-04-05T04:19:18;102011.75;;;12.11;45.64
50356;BME280;36264;51.296;-0.602;2023-04-05T04:21:44;102003.97;;;12.08;45.71
50356;BME280;36264;51.296;-0.602;2023-04-05T04:24:16;102010.06;;;12.10;45.87
50356;BME280;36264;51.296;-0.602;2023-04-05T04:26:43;102014.25;;;12.18;45.89
50356;BME280;36264;51.296;-0.602;2023-04-05T04:29:10;102012.41;;;12.23;45.84
50356;BME280;36264;51.296;-0.602;2023-04-05T04:31:40;102008.19;;;12.17;45.93
50356;BME280;36264;51.296;-0.602;2023-04-05T04:34:10;101998.53;;;12.22;45.93
50356;BME280;36264;51.296;-0.602;2023-04-05T04:36:36;102006.47;;;12.16;45.91
50356;BME280;36264;51.296;-0.602;2023-04-05T04:39:03;102001.28;;;12.14;45.83
50356;BME280;36264;51.296;-0.602;2023-04-05T04:41:29;102003.09;;;12.11;46.17
50356;BME280;36264;51.296;-0.602;2023-04-05T04:44:01;102009.00;;;12.19;46.13
50356;BME280;36264;51.296;-0.602;2023-04-05T04:46:32;102003.47;;;12.39;46.02
50356;BME280;36264;51.296;-0.602;2023-04-05T04:49:06;102015.00;;;12.24;46.18
50356;BME280;36264;51.296;-0.602;2023-04-05T04:51:32;101997.63;;;12.25;46.28
50356;BME280;36264;51.296;-0.602;2023-04-05T04:53:58;102012.34;;;12.27;46.21
50356;BME280;36264;51.296;-0.602;2023-04-05T04:56:23;102008.03;;;12.26;46.14
50356;BME280;36264;51.296;-0.602;2023-04-05T04:58:48;102016.75;;;12.24;46.26
50356;BME280;36264;51.296;-0.602;2023-04-05T05:01:14;102009.81;;;12.23;46.19
50356;BME280;36264;51.296;-0.602;2023-04-05T05:03:39;102011.50;;;12.25;46.39
50356;BME280;36264;51.296;-0.602;2023-04-05T05:06:05;102007.38;;;12.15;46.35
50356;BME280;36264;51.296;-0.602;2023-04-05T05:08:31;102008.28;;;12.12;46.50
50356;BME280;36264;51.296;-0.602;2023-04-05T05:10:56;102006.53;;;12.11;46.30
50356;BME280;36264;51.296;-0.602;2023-04-05T05:13:21;102011.63;;;12.19;46.27
50356;BME280;36264;51.296;-0.602;2023-04-05T05:15:47;102008.94;;;12.24;46.27
50356;BME280;36264;51.296;-0.602;2023-04-05T05:18:13;102003.59;;;12.31;46.38
50356;BME280;36264;51.296;-0.602;2023-04-05T05:20:38;102008.00;;;12.28;46.15
50356;BME280;36264;51.296;-0.602;2023-04-05T05:23:05;102001.00;;;12.30;46.23
50356;BME280;36264;51.296;-0.602;2023-04-05T05:25:30;102003.63;;;12.30;46.36
50356;BME280;36264;51.296;-0.602;2023-04-05T05:27:56;102001.09;;;12.25;46.35
50356;BME280;36264;51.296;-0.602;2023-04-05T05:30:21;101996.72;;;12.27;46.34
50356;BME280;36264;51.296;-0.602;2023-04-05T05:32:47;102002.75;;;12.31;46.21
50356;BME280;36264;51.296;-0.602;2023-04-05T05:35:12;102005.41;;;12.28;46.21
50356;BME280;36264;51.296;-0.602;2023-04-05T05:37:38;101996.69;;;12.29;46.39
50356;BME280;36264;51.296;-0.602;2023-04-05T05:40:04;102008.75;;;12.35;46.45
50356;BME280;36264;51.296;-0.602;2023-04-05T05:42:30;102000.13;;;12.31;46.55
50356;BME280;36264;51.296;-0.602;2023-04-05T05:45:01;102005.19;;;12.40;46.56
50356;BME280;36264;51.296;-0.602;2023-04-05T05:47:26;102000.22;;;12.26;46.89
50356;BME280;36264;51.296;-0.602;2023-04-05T05:49:52;102009.81;;;12.23;46.83
50356;BME280;36264;51.296;-0.602;2023-04-05T05:52:17;102010.69;;;12.23;46.93
50356;BME280;36264;51.296;-0.602;2023-04-05T05:54:42;102008.94;;;12.24;46.90
50356;BME280;36264;51.296;-0.602;2023-04-05T05:57:08;102000.19;;;12.28;47.04
50356;BME280;36264;51.296;-0.602;2023-04-05T05:59:33;101998.44;;;12.28;47.20
50356;BME280;36264;51.296;-0.602;2023-04-05T06:01:58;101999.22;;;12.32;47.17
50356;BME280;36264;51.296;-0.602;2023-04-05T06:04:24;101996.53;;;12.37;47.17
50356;BME280;36264;51.296;-0.602;2023-04-05T06:06:49;101998.25;;;12.39;47.34
50356;BME280;36264;51.296;-0.602;2023-04-05T06:09:15;101995.59;;;12.42;47.11
50356;BME280;36264;51.296;-0.602;2023-04-05T06:11:41;101998.06;;;12.48;47.21
50356;BME280;36264;51.296;-0.602;2023-04-05T06:14:06;101991.06;;;12.52;47.47
50356;BME280;36264;51.296;-0.602;2023-04-05T06:16:32;101989.19;;;12.57;47.39
50356;BME280;36264;51.296;-0.602;2023-04-05T06:18:59;101995.09;;;12.67;47.13
50356;BME280;36264;51.296;-0.602;2023-04-05T06:21:25;101989.19;;;12.59;47.19
50356;BME280;36264;51.296;-0.602;2023-04-05T06:23:51;101989.03;;;12.66;47.38
50356;BME280;36264;51.296;-0.602;2023-04-05T06:26:18;101989.38;;;12.92;47.36
50356;BME280;36264;51.296;-0.602;2023-04-05T06:28:45;101995.78;;;12.77;47.65
50356;BME280;36264;51.296;-0.602;2023-04-05T06:31:12;101993.84;;;12.86;47.57
50356;BME280;36264;51.296;-0.602;2023-04-05T06:33:38;101996.50;;;12.85;47.76
50356;BME280;36264;51.296;-0.602;2023-04-05T06:36:04;101991.19;;;12.90;47.87
50356;BME280;36264;51.296;-0.602;2023-04-05T06:38:30;101987.63;;;12.92;47.77
50356;BME280;36264;51.296;-0.602;2023-04-05T06:40:55;101989.16;;;13.02;47.57
50356;BME280;36264;51.296;-0.602;2023-04-05T06:43:20;101982.03;;;13.11;47.74
50356;BME280;36264;51.296;-0.602;2023-04-05T06:45:45;101985.47;;;13.13;47.72
50356;BME280;36264;51.296;-0.602;2023-04-05T06:48:11;101984.47;;;13.18;47.91
50356;BME280;36264;51.296;-0.602;2023-04-05T06:50:36;101980.91;;;13.21;47.97
50356;BME280;36264;51.296;-0.602;2023-04-05T06:53:02;101977.34;;;13.27;47.68
50356;BME280;36264;51.296;-0.602;2023-04-05T06:55:27;101975.53;;;13.29;47.73
50356;BME280;36264;51.296;-0.602;2023-04-05T06:57:53;101978.03;;;13.35;47.88
50356;BME280;36264;51.296;-0.602;2023-04-05T07:00:19;101977.03;;;13.42;48.00
50356;BME280;36264;51.296;-0.602;2023-04-05T07:02:45;101967.50;;;13.39;47.83
50356;BME280;36264;51.296;-0.602;2023-04-05T07:05:10;101969.78;;;13.53;47.75
50356;BME280;36264;51.296;-0.602;2023-04-05T07:07:40;101968.22;;;13.82;47.29
50356;BME280;36264;51.296;-0.602;2023-04-05T07:10:07;101966.75;;;13.72;47.22
50356;BME280;36264;51.296;-0.602;2023-04-05T07:12:33;101963.09;;;13.77;47.19
50356;BME280;36264;51.296;-0.602;2023-04-05T07:14:58;101968.38;;;13.76;47.41
50356;BME280;36264;51.296;-0.602;2023-04-05T07:17:24;101962.19;;;13.80;47.42
50356;BME280;36264;51.296;-0.602;2023-04-05T07:19:49;101960.97;;;13.93;47.47
50356;BME280;36264;51.296;-0.602;2023-04-05T07:22:15;101965.22;;;13.98;47.49
50356;BME280;36264;51.296;-0.602;2023-04-05T07:24:40;101960.81;;;14.00;47.48
50356;BME280;36264;51.296;-0.602;2023-04-05T07:27:06;101959.84;;;14.04;47.37
50356;BME280;36264;51.296;-0.602;2023-04-05T07:29:31;101955.22;;;14.13;47.20
50356;BME280;36264;51.296;-0.602;2023-04-05T07:31:58;101952.50;;;14.18;47.46
50356;BME280;36264;51.296;-0.602;2023-04-05T07:34:24;101955.03;;;14.21;47.42
50356;BME280;36264;51.296;-0.602;2023-04-05T07:36:51;101953.97;;;14.27;47.27
50356;BME280;36264;51.296;-0.602;2023-04-05T07:39:16;101943.38;;;14.33;47.16
50356;BME280;36264;51.296;-0.602;2023-04-05T07:41:42;101948.38;;;14.41;47.12
50356;BME280;36264;51.296;-0.602;2023-04-05T07:44:08;101944.78;;;14.45;47.31
50356;BME280;36264;51.296;-0.602;2023-04-05T07:46:33;101943.75;;;14.50;47.39
50356;BME280;36264;51.296;-0.602;2023-04-05T07:48:59;101943.91;;;14.44;47.28
50356;BME280;36264;51.296;-0.602;2023-04-05T07:51:24;101946.31;;;14.52;47.32
50356;BME280;36264;51.296;-0.602;2023-04-05T07:53:51;101941.94;;;14.53;47.50
50356;BME280;36264;51.296;-0.602;2023-04-05T07:56:16;101946.13;;;14.60;47.30
50356;BME280;36264;51.296;-0.602;2023-04-05T07:58:42;101947.91;;;14.58;47.42
50356;BME280;36264;51.296;-0.602;2023-04-05T08:01:08;101954.34;;;14.77;47.45
50356;BME280;36264;51.296;-0.602;2023-04-05T08:03:35;101952.63;;;14.76;47.61
50356;BME280;36264;51.296;-0.602;2023-04-05T08:06:14;101954.88;;;14.89;47.67
50356;BME280;36264;51.296;-0.602;2023-04-05T08:08:43;101954.41;;;14.76;48.13
50356;BME280;36264;51.296;-0.602;2023-04-05T08:11:09;101953.69;;;14.71;47.85
50356;BME280;36264;51.296;-0.602;2023-04-05T08:13:35;101947.97;;;14.86;47.68
50356;BME280;36264;51.296;-0.602;2023-04-05T08:16:02;101945.53;;;14.81;47.91
50356;BME280;36264;51.296;-0.602;2023-04-05T08:18:28;101941.84;;;14.87;47.85
50356;BME280;36264;51.296;-0.602;2023-04-05T08:20:54;101951.28;;;14.93;47.81
50356;BME280;36264;51.296;-0.602;2023-04-05T08:23:20;101955.47;;;14.98;47.72
50356;BME280;36264;51.296;-0.602;2023-04-05T08:25:45;101948.22;;;15.07;47.79
50356;BME280;36264;51.296;-0.602;2023-04-05T08:28:11;101949.78;;;15.14;47.73
50356;BME280;36264;51.296;-0.602;2023-04-05T08:30:37;101943.22;;;15.27;47.73
50356;BME280;36264;51.296;-0.602;2023-04-05T08:33:03;101937.84;;;15.32;47.96
50356;BME280;36264;51.296;-0.602;2023-04-05T08:35:29;101947.19;;;15.40;47.56
50356;BME280;36264;51.296;-0.602;2023-04-05T08:37:55;101935.97;;;15.37;47.64
50356;BME280;36264;51.296;-0.602;2023-04-05T08:40:21;101943.09;;;15.32;47.49
50356;BME280;36264;51.296;-0.602;2023-04-05T08:43:07;101938.31;;;15.45;47.06
50356;BME280;36264;51.296;-0.602;2023-04-05T08:45:38;101940.00;;;15.47;47.36
50356;BME280;36264;51.296;-0.602;2023-04-05T08:48:08;101948.28;;;15.33;47.15
50356;BME280;36264;51.296;-0.602;2023-04-05T08:50:33;101944.75;;;15.34;47.42
50356;BME280;36264;51.296;-0.602;2023-04-05T08:52:59;101938.31;;;15.45;47.54
50356;BME280;36264;51.296;-0.602;2023-04-05T08:55:25;101940.38;;;15.35;47.46
50356;BME280;36264;51.296;-0.602;2023-04-05T08:57:53;101942.41;;;15.53;47.35
50356;BME280;36264;51.296;-0.602;2023-04-05T09:00:23;101948.78;;;15.45;47.34
50356;BME280;36264;51.296;-0.602;2023-04-05T09:02:53;101939.28;;;15.69;47.15
50356;BME280;36264;51.296;-0.602;2023-04-05T09:05:19;101940.53;;;15.57;47.21
50356;BME280;36264;51.296;-0.602;2023-04-05T09:07:47;101937.72;;;15.63;47.12
50356;BME280;36264;51.296;-0.602;2023-04-05T09:10:13;101932.38;;;15.66;47.13
50356;BME280;36264;51.296;-0.602;2023-04-05T09:12:39;101929.28;;;15.82;47.02
50356;BME280;36264;51.296;-0.602;2023-04-05T09:15:06;101930.72;;;15.90;47.24
50356;BME280;36264;51.296;-0.602;2023-04-05T09:17:32;101924.84;;;15.84;46.98
50356;BME280;36264;51.296;-0.602;2023-04-05T09:19:58;101920.63;;;15.80;47.35
50356;BME280;36264;51.296;-0.602;2023-04-05T09:22:23;101917.13;;;15.79;46.98
50356;BME280;36264;51.296;-0.602;2023-04-05T09:24:49;101918.13;;;15.77;47.29
50356;BME280;36264;51.296;-0.602;2023-04-05T09:27:16;101912.00;;;16.01;46.99
50356;BME280;36264;51.296;-0.602;2023-04-05T09:29:47;101908.44;;;16.04;47.38
50356;BME280;36264;51.296;-0.602;2023-04-05T09:32:14;101897.06;;;16.03;47.38
50356;BME280;36264;51.296;-0.602;2023-04-05T09:34:41;101903.19;;;16.04;47.03
50356;BME280;36264;51.296;-0.602;2023-04-05T09:37:14;101896.41;;;16.22;47.18
50356;BME280;36264;51.296;-0.602;2023-04-05T09:39:40;101901.53;;;16.01;47.34
50356;BME280;36264;51.296;-0.602;2023-04-05T09:47:19;101892.19;;;16.41;47.31
50356;BME280;36264;51.296;-0.602;2023-04-05T09:49:45;101895.97;;;16.34;47.20
50356;BME280;36264;51.296;-0.602;2023-04-05T09:52:24;101882.19;;;16.53;46.99
50356;BME280;36264;51.296;-0.602;2023-04-05T09:54:52;101888.16;;;16.56;47.07
50356;BME280;36264;51.296;-0.602;2023-04-05T09:57:19;101895.75;;;16.40;46.94
50356;BME280;36264;51.296;-0.602;2023-04-05T09:59:45;101891.50;;;16.60;47.21
50356;BME280;36264;51.296;-0.602;2023-04-05T10:02:11;101901.41;;;16.53;47.01
50356;BME280;36264;51.296;-0.602;2023-04-05T10:04:41;101893.56;;;16.75;46.74
50356;BME280;36264;51.296;-0.602;2023-04-05T10:07:11;101884.63;;;16.79;46.69
50356;BME280;36264;51.296;-0.602;2023-04-05T10:09:38;101882.94;;;16.78;46.99
50356;BME280;36264;51.296;-0.602;2023-04-05T10:12:06;101884.69;;;16.78;46.83
50356;BME280;36264;51.296;-0.602;2023-04-05T10:14:31;101878.72;;;16.74;47.00
50356;BME280;36264;51.296;-0.602;2023-04-05T10:18:02;101881.75;;;17.09;46.93
50356;BME280;36264;51.296;-0.602;2023-04-05T10:22:40;101878.19;;;17.32;46.49
50356;BME280;36264;51.296;-0.602;2023-04-05T10:30:33;101874.66;;;17.54;46.11
50356;BME280;36264;51.296;-0.602;2023-04-05T10:33:27;101863.75;;;17.63;45.34
50356;BME280;36264;51.296;-0.602;2023-04-05T10:38:27;101861.66;;;17.71;45.84
50356;BME280;36264;51.296;-0.602;2023-04-05T10:40:56;101861.06;;;17.65;45.98
50356;BME280;36264;51.296;-0.602;2023-04-05T10:43:27;101862.06;;;17.62;46.06
50356;BME280;36264;51.296;-0.602;2023-04-05T10:45:53;101858.19;;;17.71;45.93
50356;BME280;36264;51.296;-0.602;2023-04-05T10:48:52;101857.84;;;17.99;45.38
50356;BME280;36264;51.296;-0.602;2023-04-05T10:51:19;101847.53;;;17.95;45.84
50356;BME280;36264;51.296;-0.602;2023-04-05T10:53:48;101846.13;;;18.06;45.47
50356;BME280;36264;51.296;-0.602;2023-04-05T10:56:14;101853.09;;;17.87;45.51
50356;BME280;36264;51.296;-0.602;2023-04-05T10:58:41;101848.25;;;17.98;45.44
50356;BME280;36264;51.296;-0.602;2023-04-05T11:01:07;101849.19;;;17.97;45.18
50356;BME280;36264;51.296;-0.602;2023-04-05T11:06:18;101843.34;;;18.09;43.34
50356;BME280;36264;51.296;-0.602;2023-04-05T11:08:50;101830.28;;;18.08;44.75
50356;BME280;36264;51.296;-0.602;2023-04-05T11:11:17;101830.44;;;18.05;44.77
50356;BME280;36264;51.296;-0.602;2023-04-05T11:13:47;101827.09;;;18.20;43.87
50356;BME280;36264;51.296;-0.602;2023-04-05T11:16:13;101826.88;;;18.06;44.50
50356;BME280;36264;51.296;-0.602;2023-04-05T11:18:44;101817.53;;;18.38;43.73
50356;BME280;36264;51.296;-0.602;2023-04-05T11:21:10;101823.69;;;18.18;44.32
50356;BME280;36264;51.296;-0.602;2023-04-05T11:23:58;101816.84;;;18.52;42.32
50356;BME280;36264;51.296;-0.602;2023-04-05T11:26:30;101821.19;;;18.53;43.75
50356;BME280;36264;51.296;-0.602;2023-04-05T11:28:56;101814.03;;;18.38;43.99
50356;BME280;36264;51.296;-0.602;2023-04-05T11:31:22;101810.56;;;18.37;43.52
50356;BME280;36264;51.296;-0.602;2023-04-05T11:34:03;101811.09;;;18.63;41.87
50356;BME280;36264;51.296;-0.602;2023-04-05T11:42:10;101810.94;;;18.66;42.29
50356;BME280;36264;51.296;-0.602;2023-04-05T11:44:42;101808.44;;;18.63;43.07
50356;BME280;36264;51.296;-0.602;2023-04-05T11:47:08;101804.78;;;18.48;42.90
50356;BME280;36264;51.296;-0.602;2023-04-05T11:49:35;101805.34;;;18.36;42.00
50356;BME280;36264;51.296;-0.602;2023-04-05T11:52:16;101804.47;;;18.73;42.09
50356;BME280;36264;51.296;-0.602;2023-04-05T11:54:42;101796.88;;;18.67;42.94
50356;BME280;36264;51.296;-0.602;2023-04-05T11:57:18;101802.03;;;18.88;41.72
50356;BME280;36264;51.296;-0.602;2023-04-05T11:59:44;101790.34;;;18.74;43.05
50356;BME280;36264;51.296;-0.602;2023-04-05T12:02:09;101795.13;;;18.85;42.95
50356;BME280;36264;51.296;-0.602;2023-04-05T12:04:35;101785.94;;;18.94;42.41
50356;BME280;36264;51.296;-0.602;2023-04-05T12:07:18;101784.69;;;19.36;41.71
50356;BME280;36264;51.296;-0.602;2023-04-05T12:09:57;101778.19;;;19.43;39.98
50356;BME280;36264;51.296;-0.602;2023-04-05T12:12:23;101784.78;;;19.17;41.87
50356;BME280;36264;51.296;-0.602;2023-04-05T12:14:48;101778.28;;;19.24;41.84
50356;BME280;36264;51.296;-0.602;2023-04-05T12:17:14;101775.09;;;19.35;42.10
50356;BME280;36264;51.296;-0.602;2023-04-05T12:19:39;101776.47;;;19.42;42.19
50356;BME280;36264;51.296;-0.602;2023-04-05T12:22:05;101766.13;;;19.55;42.05
50356;BME280;36264;51.296;-0.602;2023-04-05T12:24:31;101761.63;;;19.57;41.70
50356;BME280;36264;51.296;-0.602;2023-04-05T12:26:56;101759.84;;;19.58;41.58
50356;BME280;36264;51.296;-0.602;2023-04-05T12:29:21;101765.06;;;19.59;41.32
50356;BME280;36264;51.296;-0.602;2023-04-05T12:31:49;101760.25;;;19.50;41.67
50356;BME280;36264;51.296;-0.602;2023-04-05T12:34:22;101765.66;;;19.13;39.42
50356;BME280;36264;51.296;-0.602;2023-04-05T12:36:48;101754.88;;;19.00;42.25
50356;BME280;36264;51.296;-0.602;2023-04-05T12:39:14;101756.69;;;19.17;42.40
50356;BME280;36264;51.296;-0.602;2023-04-05T12:41:40;101752.41;;;19.15;42.73
50356;BME280;36264;51.296;-0.602;2023-04-05T12:44:15;101751.19;;;19.55;41.50
50356;BME280;36264;51.296;-0.602;2023-04-05T12:46:46;101751.13;;;19.40;40.55
50356;BME280;36264;51.296;-0.602;2023-04-05T12:49:14;101756.78;;;19.49;42.64
50356;BME280;36264;51.296;-0.602;2023-04-05T12:51:43;101753.06;;;19.69;41.38
50356;BME280;36264;51.296;-0.602;2023-04-05T12:54:14;101744.00;;;19.75;40.91
50356;BME280;36264;51.296;-0.602;2023-04-05T12:56:42;101743.63;;;19.83;41.61
50356;BME280;36264;51.296;-0.602;2023-04-05T12:59:08;101741.97;;;19.80;42.22
50356;BME280;36264;51.296;-0.602;2023-04-05T13:01:33;101739.28;;;19.64;41.42
50356;BME280;36264;51.296;-0.602;2023-04-05T13:03:59;101739.94;;;19.85;42.09
50356;BME280;36264;51.296;-0.602;2023-04-05T13:06:29;101724.56;;;19.94;42.01
50356;BME280;36264;51.296;-0.602;2023-04-05T13:08:55;101724.91;;;20.03;42.12
50356;BME280;36264;51.296;-0.602;2023-04-05T13:11:21;101727.03;;;20.13;42.22
50356;BME280;36264;51.296;-0.602;2023-04-05T13:13:46;101715.88;;;20.07;41.88
50356;BME280;36264;51.296;-0.602;2023-04-05T13:16:12;101713.00;;;20.12;42.15